sensor_id;sensor_type;location;lat;lon;timestamp;P1;durP1;ratioP1;P2;durP2;ratioP2
78778;SDS011;68121;52.404;5.318;2023-03-22T00:00:52;8.52;;;1.42;;
78778;SDS011;68121;52.404;5.318;2023-03-22T00:03:20;8.00;;;1.20;;
78778;SDS011;68121;52.404;5.318;2023-03-22T00:05:46;7.25;;;1.08;;
78778;SDS011;68121;52.404;5.318;2023-03-22T00:08:13;7.07;;;1.05;;
78778;SDS011;68121;52.404;5.318;2023-03-22T00:10:39;4.30;;;0.93;;
78778;SDS011;68121;52.404;5.318;2023-03-22T00:13:07;8.30;;;1.23;;
78778;SDS011;68121;52.404;5.318;2023-03-22T00:15:34;7.32;;;1.20;;
78778;SDS011;68121;52.404;5.318;2023-03-22T00:18:00;8.65;;;0.90;;
78778;SDS011;68121;52.404;5.318;2023-03-22T00:20:27;4.82;;;1.05;;
78778;SDS011;68121;52.404;5.318;2023-03-22T00:22:59;15.38;;;1.38;;
78778;SDS011;68121;52.404;5.318;2023-03-22T00:25:25;6.90;;;1.02;;
78778;SDS011;68121;52.404;5.318;2023-03-22T00:27:51;4.40;;;1.67;;
78778;SDS011;68121;52.404;5.318;2023-03-22T00:30:18;6.28;;;1.13;;
78778;SDS011;68121;52.404;5.318;2023-03-22T00:32:44;6.65;;;1.25;;
78778;SDS011;68121;52.404;5.318;2023-03-22T00:35:10;5.45;;;0.98;;
78778;SDS011;68121;52.404;5.318;2023-03-22T00:37:37;11.48;;;1.98;;
78778;SDS011;68121;52.404;5.318;2023-03-22T00:40:04;4.97;;;1.20;;
78778;SDS011;68121;52.404;5.318;2023-03-22T00:42:37;4.72;;;1.45;;
78778;SDS011;68121;52.404;5.318;2023-03-22T00:45:04;4.85;;;1.13;;
78778;SDS011;68121;52.404;5.318;2023-03-22T00:47:32;4.00;;;0.85;;
78778;SDS011;68121;52.404;5.318;2023-03-22T00:49:58;10.48;;;1.58;;
78778;SDS011;68121;52.404;5.318;2023-03-22T00:52:24;5.38;;;1.33;;
78778;SDS011;68121;52.404;5.318;2023-03-22T00:54:50;3.78;;;1.10;;
78778;SDS011;68121;52.404;5.318;2023-03-22T00:57:16;12.50;;;1.25;;
78778;SDS011;68121;52.404;5.318;2023-03-22T00:59:43;5.13;;;0.77;;
78778;SDS011;68121;52.404;5.318;2023-03-22T01:02:09;4.93;;;1.05;;
78778;SDS011;68121;52.404;5.318;2023-03-22T01:04:41;3.10;;;0.80;;
78778;SDS011;68121;52.404;5.318;2023-03-22T01:07:11;4.43;;;1.35;;
78778;SDS011;68121;52.404;5.318;2023-03-22T01:09:45;5.53;;;1.15;;
78778;SDS011;68121;52.404;5.318;2023-03-22T01:12:18;10.20;;;1.50;;
78778;SDS011;68121;52.404;5.318;2023-03-22T01:14:45;5.43;;;1.40;;
78778;SDS011;68121;52.404;5.318;2023-03-22T01:17:11;9.75;;;1.50;;
78778;SDS011;68121;52.404;5.318;2023-03-22T01:19:37;6.93;;;0.93;;
78778;SDS011;68121;52.404;5.318;2023-03-22T01:22:04;5.68;;;0.93;;
78778;SDS011;68121;52.404;5.318;2023-03-22T01:24:31;7.47;;;1.38;;
78778;SDS011;68121;52.404;5.318;2023-03-22T01:26:58;7.03;;;1.23;;
78778;SDS011;68121;52.404;5.318;2023-03-22T01:29:24;8.55;;;1.35;;
78778;SDS011;68121;52.404;5.318;2023-03-22T01:31:50;6.60;;;1.48;;
78778;SDS011;68121;52.404;5.318;2023-03-22T01:34:17;4.72;;;1.20;;
78778;SDS011;68121;52.404;5.318;2023-03-22T01:36:43;6.38;;;1.40;;
78778;SDS011;68121;52.404;5.318;2023-03-22T01:39:09;8.80;;;1.50;;
78778;SDS011;68121;52.404;5.318;2023-03-22T01:41:35;6.72;;;1.48;;
78778;SDS011;68121;52.404;5.318;2023-03-22T01:46:30;8.40;;;1.98;;
78778;SDS011;68121;52.404;5.318;2023-03-22T01:48:57;7.45;;;1.75;;
78778;SDS011;68121;52.404;5.318;2023-03-22T01:51:26;10.70;;;2.42;;
78778;SDS011;68121;52.404;5.318;2023-03-22T01:53:53;5.05;;;1.27;;
78778;SDS011;68121;52.404;5.318;2023-03-22T01:56:30;5.32;;;1.13;;
78778;SDS011;68121;52.404;5.318;2023-03-22T01:59:00;9.80;;;1.92;;
78778;SDS011;68121;52.404;5.318;2023-03-22T02:01:26;6.50;;;1.40;;
78778;SDS011;68121;52.404;5.318;2023-03-22T02:03:57;8.65;;;1.52;;
78778;SDS011;68121;52.404;5.318;2023-03-22T02:06:27;7.53;;;1.38;;
78778;SDS011;68121;52.404;5.318;2023-03-22T02:08:54;5.25;;;1.50;;
78778;SDS011;68121;52.404;5.318;2023-03-22T02:38:50;5.30;;;2.25;;
78778;SDS011;68121;52.404;5.318;2023-03-22T02:42:05;4.50;;;1.33;;
78778;SDS011;68121;52.404;5.318;2023-03-22T02:44:57;8.82;;;1.85;;
78778;SDS011;68121;52.404;5.318;2023-03-22T02:47:51;5.75;;;1.52;;
78778;SDS011;68121;52.404;5.318;2023-03-22T02:50:44;4.97;;;1.52;;
78778;SDS011;68121;52.404;5.318;2023-03-22T02:53:16;5.40;;;1.73;;
78778;SDS011;68121;52.404;5.318;2023-03-22T02:55:50;6.22;;;1.48;;
78778;SDS011;68121;52.404;5.318;2023-03-22T03:01:32;5.43;;;1.60;;
78778;SDS011;68121;52.404;5.318;2023-03-22T03:04:03;5.75;;;1.80;;
78778;SDS011;68121;52.404;5.318;2023-03-22T03:09:04;3.28;;;1.50;;
78778;SDS011;68121;52.404;5.318;2023-03-22T03:11:32;10.57;;;2.17;;
78778;SDS011;68121;52.404;5.318;2023-03-22T03:13:58;7.72;;;2.05;;
78778;SDS011;68121;52.404;5.318;2023-03-22T03:16:25;4.60;;;2.05;;
78778;SDS011;68121;52.404;5.318;2023-03-22T03:18:59;12.07;;;3.08;;
78778;SDS011;68121;52.404;5.318;2023-03-22T03:27:24;9.90;;;3.05;;
78778;SDS011;68121;52.404;5.318;2023-03-22T03:32:33;8.02;;;3.22;;
78778;SDS011;68121;52.404;5.318;2023-03-22T03:35:07;10.68;;;3.92;;
78778;SDS011;68121;52.404;5.318;2023-03-22T03:37:47;11.48;;;3.72;;
78778;SDS011;68121;52.404;5.318;2023-03-22T03:40:26;8.25;;;4.07;;
78778;SDS011;68121;52.404;5.318;2023-03-22T03:42:59;7.43;;;3.70;;
78778;SDS011;68121;52.404;5.318;2023-03-22T03:45:28;11.48;;;4.72;;
78778;SDS011;68121;52.404;5.318;2023-03-22T03:47:59;10.20;;;3.90;;
78778;SDS011;68121;52.404;5.318;2023-03-22T03:50:28;11.50;;;4.18;;
78778;SDS011;68121;52.404;5.318;2023-03-22T03:52:55;8.07;;;4.47;;
78778;SDS011;68121;52.404;5.318;2023-03-22T03:55:22;9.00;;;4.03;;
78778;SDS011;68121;52.404;5.318;2023-03-22T03:57:48;11.88;;;4.78;;
78778;SDS011;68121;52.404;5.318;2023-03-22T04:00:15;13.80;;;5.22;;
78778;SDS011;68121;52.404;5.318;2023-03-22T04:02:41;13.85;;;4.88;;
78778;SDS011;68121;52.404;5.318;2023-03-22T04:05:08;10.75;;;5.10;;
78778;SDS011;68121;52.404;5.318;2023-03-22T04:07:36;9.63;;;4.63;;
78778;SDS011;68121;52.404;5.318;2023-03-22T04:10:03;9.63;;;4.63;;
78778;SDS011;68121;52.404;5.318;2023-03-22T04:12:30;14.75;;;6.03;;
78778;SDS011;68121;52.404;5.318;2023-03-22T04:14:57;12.20;;;5.13;;
78778;SDS011;68121;52.404;5.318;2023-03-22T04:17:23;9.23;;;5.22;;
78778;SDS011;68121;52.404;5.318;2023-03-22T04:19:50;10.32;;;5.57;;
78778;SDS011;68121;52.404;5.318;2023-03-22T04:22:18;9.73;;;4.53;;
78778;SDS011;68121;52.404;5.318;2023-03-22T04:24:44;10.57;;;5.10;;
78778;SDS011;68121;52.404;5.318;2023-03-22T04:27:18;12.55;;;5.03;;
78778;SDS011;68121;52.404;5.318;2023-03-22T04:29:45;10.32;;;4.95;;
78778;SDS011;68121;52.404;5.318;2023-03-22T04:32:16;12.55;;;5.53;;
78778;SDS011;68121;52.404;5.318;2023-03-22T04:34:48;10.43;;;5.47;;
78778;SDS011;68121;52.404;5.318;2023-03-22T04:37:15;11.57;;;5.47;;
78778;SDS011;68121;52.404;5.318;2023-03-22T04:39:41;11.90;;;5.07;;
78778;SDS011;68121;52.404;5.318;2023-03-22T04:42:09;13.32;;;5.82;;
78778;SDS011;68121;52.404;5.318;2023-03-22T04:44:35;10.65;;;5.72;;
78778;SDS011;68121;52.404;5.318;2023-03-22T04:47:01;7.40;;;4.18;;
78778;SDS011;68121;52.404;5.318;2023-03-22T04:49:28;12.77;;;5.43;;
78778;SDS011;68121;52.404;5.318;2023-03-22T04:51:54;13.50;;;5.57;;
78778;SDS011;68121;52.404;5.318;2023-03-22T04:54:21;10.95;;;5.45;;
78778;SDS011;68121;52.404;5.318;2023-03-22T04:56:48;13.10;;;5.60;;
78778;SDS011;68121;52.404;5.318;2023-03-22T04:59:14;13.52;;;5.93;;
78778;SDS011;68121;52.404;5.318;2023-03-22T05:01:48;16.02;;;6.45;;
78778;SDS011;68121;52.404;5.318;2023-03-22T05:04:16;12.35;;;5.63;;
78778;SDS011;68121;52.404;5.318;2023-03-22T05:06:43;12.77;;;6.05;;
78778;SDS011;68121;52.404;5.318;2023-03-22T05:09:11;16.30;;;6.47;;
78778;SDS011;68121;52.404;5.318;2023-03-22T05:11:37;10.75;;;6.03;;
78778;SDS011;68121;52.404;5.318;2023-03-22T05:14:05;13.95;;;6.43;;
78778;SDS011;68121;52.404;5.318;2023-03-22T05:16:32;10.77;;;5.55;;
78778;SDS011;68121;52.404;5.318;2023-03-22T05:18:59;15.20;;;5.93;;
78778;SDS011;68121;52.404;5.318;2023-03-22T05:21:27;11.18;;;5.82;;
78778;SDS011;68121;52.404;5.318;2023-03-22T05:23:55;12.88;;;5.90;;
78778;SDS011;68121;52.404;5.318;2023-03-22T05:26:25;11.98;;;5.57;;
78778;SDS011;68121;52.404;5.318;2023-03-22T05:28:52;20.08;;;6.55;;
78778;SDS011;68121;52.404;5.318;2023-03-22T05:31:19;16.23;;;5.80;;
78778;SDS011;68121;52.404;5.318;2023-03-22T05:33:47;11.93;;;5.22;;
78778;SDS011;68121;52.404;5.318;2023-03-22T05:36:15;12.38;;;5.60;;
78778;SDS011;68121;52.404;5.318;2023-03-22T05:38:42;12.45;;;5.57;;
78778;SDS011;68121;52.404;5.318;2023-03-22T05:41:09;12.48;;;5.35;;
78778;SDS011;68121;52.404;5.318;2023-03-22T05:43:36;8.27;;;4.00;;
78778;SDS011;68121;52.404;5.318;2023-03-22T05:46:09;8.20;;;4.32;;
78778;SDS011;68121;52.404;5.318;2023-03-22T05:48:36;8.98;;;4.32;;
78778;SDS011;68121;52.404;5.318;2023-03-22T05:51:04;10.40;;;4.50;;
78778;SDS011;68121;52.404;5.318;2023-03-22T05:53:35;12.23;;;4.50;;
78778;SDS011;68121;52.404;5.318;2023-03-22T05:56:01;14.70;;;5.32;;
78778;SDS011;68121;52.404;5.318;2023-03-22T05:58:28;9.32;;;4.20;;
78778;SDS011;68121;52.404;5.318;2023-03-22T06:00:57;11.00;;;4.10;;
78778;SDS011;68121;52.404;5.318;2023-03-22T06:03:27;10.45;;;4.60;;
78778;SDS011;68121;52.404;5.318;2023-03-22T06:05:53;8.70;;;4.68;;
78778;SDS011;68121;52.404;5.318;2023-03-22T06:08:20;11.80;;;5.32;;
78778;SDS011;68121;52.404;5.318;2023-03-22T06:10:48;8.32;;;3.70;;
78778;SDS011;68121;52.404;5.318;2023-03-22T06:13:15;9.02;;;3.90;;
78778;SDS011;68121;52.404;5.318;2023-03-22T06:15:42;6.70;;;3.85;;
78778;SDS011;68121;52.404;5.318;2023-03-22T06:18:08;7.57;;;4.00;;
78778;SDS011;68121;52.404;5.318;2023-03-22T06:20:35;11.40;;;3.72;;
78778;SDS011;68121;52.404;5.318;2023-03-22T06:23:01;10.13;;;4.00;;
78778;SDS011;68121;52.404;5.318;2023-03-22T06:25:27;8.57;;;3.97;;
78778;SDS011;68121;52.404;5.318;2023-03-22T06:27:53;9.23;;;3.45;;
78778;SDS011;68121;52.404;5.318;2023-03-22T06:30:19;6.18;;;3.72;;
78778;SDS011;68121;52.404;5.318;2023-03-22T06:32:45;10.07;;;3.45;;
78778;SDS011;68121;52.404;5.318;2023-03-22T06:35:11;11.57;;;3.40;;
78778;SDS011;68121;52.404;5.318;2023-03-22T06:37:37;6.82;;;2.63;;
78778;SDS011;68121;52.404;5.318;2023-03-22T06:40:03;8.27;;;3.80;;
78778;SDS011;68121;52.404;5.318;2023-03-22T06:42:30;11.07;;;3.88;;
78778;SDS011;68121;52.404;5.318;2023-03-22T06:44:56;9.38;;;2.83;;
78778;SDS011;68121;52.404;5.318;2023-03-22T06:47:22;9.63;;;3.38;;
78778;SDS011;68121;52.404;5.318;2023-03-22T06:49:50;9.02;;;2.88;;
78778;SDS011;68121;52.404;5.318;2023-03-22T06:52:16;8.45;;;3.38;;
78778;SDS011;68121;52.404;5.318;2023-03-22T06:54:43;11.48;;;2.70;;
78778;SDS011;68121;52.404;5.318;2023-03-22T06:57:09;8.68;;;2.22;;
78778;SDS011;68121;52.404;5.318;2023-03-22T06:59:36;12.43;;;2.92;;
78778;SDS011;68121;52.404;5.318;2023-03-22T07:02:02;7.13;;;2.42;;
78778;SDS011;68121;52.404;5.318;2023-03-22T07:04:28;7.03;;;2.13;;
78778;SDS011;68121;52.404;5.318;2023-03-22T07:06:54;5.45;;;2.28;;
78778;SDS011;68121;52.404;5.318;2023-03-22T07:09:21;4.90;;;2.13;;
78778;SDS011;68121;52.404;5.318;2023-03-22T07:11:49;3.97;;;1.85;;
78778;SDS011;68121;52.404;5.318;2023-03-22T07:14:15;4.13;;;1.80;;
78778;SDS011;68121;52.404;5.318;2023-03-22T07:16:41;8.73;;;2.42;;
78778;SDS011;68121;52.404;5.318;2023-03-22T07:19:07;4.78;;;2.10;;
78778;SDS011;68121;52.404;5.318;2023-03-22T07:21:34;4.75;;;1.70;;
78778;SDS011;68121;52.404;5.318;2023-03-22T07:24:00;6.07;;;2.00;;
78778;SDS011;68121;52.404;5.318;2023-03-22T07:26:26;7.03;;;1.90;;
78778;SDS011;68121;52.404;5.318;2023-03-22T07:28:55;6.80;;;1.60;;
78778;SDS011;68121;52.404;5.318;2023-03-22T07:31:21;6.75;;;2.58;;
78778;SDS011;68121;52.404;5.318;2023-03-22T07:33:47;5.07;;;1.73;;
78778;SDS011;68121;52.404;5.318;2023-03-22T07:36:13;3.63;;;1.73;;
78778;SDS011;68121;52.404;5.318;2023-03-22T07:38:39;5.07;;;1.50;;
78778;SDS011;68121;52.404;5.318;2023-03-22T07:41:06;8.10;;;2.10;;
78778;SDS011;68121;52.404;5.318;2023-03-22T07:43:32;11.02;;;1.90;;
78778;SDS011;68121;52.404;5.318;2023-03-22T07:45:58;6.72;;;2.22;;
78778;SDS011;68121;52.404;5.318;2023-03-22T07:48:25;4.75;;;1.70;;
78778;SDS011;68121;52.404;5.318;2023-03-22T07:50:53;5.80;;;1.27;;
78778;SDS011;68121;52.404;5.318;2023-03-22T07:53:20;6.03;;;2.00;;
78778;SDS011;68121;52.404;5.318;2023-03-22T07:55:46;5.97;;;1.95;;
78778;SDS011;68121;52.404;5.318;2023-03-22T07:58:12;7.30;;;2.75;;
78778;SDS011;68121;52.404;5.318;2023-03-22T08:00:39;5.10;;;1.63;;
78778;SDS011;68121;52.404;5.318;2023-03-22T08:03:05;7.78;;;1.75;;
78778;SDS011;68121;52.404;5.318;2023-03-22T08:05:31;4.85;;;1.55;;
78778;SDS011;68121;52.404;5.318;2023-03-22T08:07:57;5.68;;;1.95;;
78778;SDS011;68121;52.404;5.318;2023-03-22T08:10:23;13.00;;;2.17;;
78778;SDS011;68121;52.404;5.318;2023-03-22T08:12:49;8.38;;;1.70;;
78778;SDS011;68121;52.404;5.318;2023-03-22T08:15:15;5.65;;;1.80;;
78778;SDS011;68121;52.404;5.318;2023-03-22T08:17:41;6.82;;;1.73;;
78778;SDS011;68121;52.404;5.318;2023-03-22T08:20:08;5.00;;;1.63;;
78778;SDS011;68121;52.404;5.318;2023-03-22T08:22:35;5.72;;;1.65;;
78778;SDS011;68121;52.404;5.318;2023-03-22T08:25:01;7.43;;;1.55;;
78778;SDS011;68121;52.404;5.318;2023-03-22T08:27:29;3.50;;;1.20;;
78778;SDS011;68121;52.404;5.318;2023-03-22T08:29:56;6.57;;;2.00;;
78778;SDS011;68121;52.404;5.318;2023-03-22T08:32:22;7.43;;;1.63;;
78778;SDS011;68121;52.404;5.318;2023-03-22T08:34:49;4.97;;;1.80;;
78778;SDS011;68121;52.404;5.318;2023-03-22T08:37:15;8.27;;;1.30;;
78778;SDS011;68121;52.404;5.318;2023-03-22T08:39:44;4.80;;;1.58;;
78778;SDS011;68121;52.404;5.318;2023-03-22T08:42:11;6.43;;;1.63;;
78778;SDS011;68121;52.404;5.318;2023-03-22T08:44:37;7.45;;;1.75;;
78778;SDS011;68121;52.404;5.318;2023-03-22T08:47:03;6.90;;;1.98;;
78778;SDS011;68121;52.404;5.318;2023-03-22T08:49:29;9.15;;;2.15;;
78778;SDS011;68121;52.404;5.318;2023-03-22T08:51:55;6.28;;;1.23;;
78778;SDS011;68121;52.404;5.318;2023-03-22T08:54:25;8.18;;;1.75;;
78778;SDS011;68121;52.404;5.318;2023-03-22T08:56:52;5.18;;;1.40;;
78778;SDS011;68121;52.404;5.318;2023-03-22T08:59:18;7.80;;;1.40;;
78778;SDS011;68121;52.404;5.318;2023-03-22T09:01:44;10.52;;;1.50;;
78778;SDS011;68121;52.404;5.318;2023-03-22T09:04:11;9.70;;;1.80;;
78778;SDS011;68121;52.404;5.318;2023-03-22T09:06:37;6.50;;;2.33;;
78778;SDS011;68121;52.404;5.318;2023-03-22T09:09:07;5.43;;;1.85;;
78778;SDS011;68121;52.404;5.318;2023-03-22T09:11:33;6.03;;;1.75;;
78778;SDS011;68121;52.404;5.318;2023-03-22T09:14:01;6.40;;;1.70;;
78778;SDS011;68121;52.404;5.318;2023-03-22T09:16:27;4.15;;;1.38;;
78778;SDS011;68121;52.404;5.318;2023-03-22T09:18:54;4.18;;;1.65;;
78778;SDS011;68121;52.404;5.318;2023-03-22T09:21:20;7.82;;;2.70;;
78778;SDS011;68121;52.404;5.318;2023-03-22T09:23:46;5.65;;;1.33;;
78778;SDS011;68121;52.404;5.318;2023-03-22T09:26:12;3.63;;;1.65;;
78778;SDS011;68121;52.404;5.318;2023-03-22T09:28:39;5.38;;;1.70;;
78778;SDS011;68121;52.404;5.318;2023-03-22T09:31:06;4.38;;;1.83;;
78778;SDS011;68121;52.404;5.318;2023-03-22T09:33:36;5.68;;;1.80;;
78778;SDS011;68121;52.404;5.318;2023-03-22T09:36:03;2.80;;;1.30;;
78778;SDS011;68121;52.404;5.318;2023-03-22T09:38:29;7.25;;;2.53;;
78778;SDS011;68121;52.404;5.318;2023-03-22T09:40:59;7.13;;;2.63;;
78778;SDS011;68121;52.404;5.318;2023-03-22T09:46:01;6.50;;;2.00;;
78778;SDS011;68121;52.404;5.318;2023-03-22T09:48:30;8.65;;;2.05;;
78778;SDS011;68121;52.404;5.318;2023-03-22T09:51:00;6.68;;;1.80;;
78778;SDS011;68121;52.404;5.318;2023-03-22T09:53:28;6.63;;;2.53;;
78778;SDS011;68121;52.404;5.318;2023-03-22T09:56:14;5.20;;;1.42;;
78778;SDS011;68121;52.404;5.318;2023-03-22T10:01:30;3.60;;;1.50;;
78778;SDS011;68121;52.404;5.318;2023-03-22T10:06:57;5.85;;;1.77;;
78778;SDS011;68121;52.404;5.318;2023-03-22T10:10:17;4.45;;;1.67;;
78778;SDS011;68121;52.404;5.318;2023-03-22T10:12:24;8.05;;;1.90;;
78778;SDS011;68121;52.404;5.318;2023-03-22T10:17:59;4.32;;;1.67;;
78778;SDS011;68121;52.404;5.318;2023-03-22T10:20:33;10.23;;;2.08;;
78778;SDS011;68121;52.404;5.318;2023-03-22T10:23:01;3.72;;;1.77;;
78778;SDS011;68121;52.404;5.318;2023-03-22T10:25:32;4.28;;;1.83;;
78778;SDS011;68121;52.404;5.318;2023-03-22T10:28:15;2.72;;;1.17;;
78778;SDS011;68121;52.404;5.318;2023-03-22T10:30:45;5.40;;;1.60;;
78778;SDS011;68121;52.404;5.318;2023-03-22T10:33:20;4.07;;;1.95;;
78778;SDS011;68121;52.404;5.318;2023-03-22T10:35:49;6.57;;;2.17;;
78778;SDS011;68121;52.404;5.318;2023-03-22T10:38:18;6.40;;;2.33;;
78778;SDS011;68121;52.404;5.318;2023-03-22T10:40:48;7.40;;;1.63;;
78778;SDS011;68121;52.404;5.318;2023-03-22T10:43:20;4.47;;;1.80;;
78778;SDS011;68121;52.404;5.318;2023-03-22T10:45:53;3.53;;;1.63;;
78778;SDS011;68121;52.404;5.318;2023-03-22T10:50:55;5.68;;;2.45;;
78778;SDS011;68121;52.404;5.318;2023-03-22T10:55:51;5.45;;;2.05;;
78778;SDS011;68121;52.404;5.318;2023-03-22T10:58:19;5.40;;;2.20;;
78778;SDS011;68121;52.404;5.318;2023-03-22T11:00:49;6.55;;;1.40;;
78778;SDS011;68121;52.404;5.318;2023-03-22T11:03:29;6.30;;;2.00;;
78778;SDS011;68121;52.404;5.318;2023-03-22T11:06:06;5.90;;;1.80;;
78778;SDS011;68121;52.404;5.318;2023-03-22T11:11:19;4.80;;;1.52;;
78778;SDS011;68121;52.404;5.318;2023-03-22T11:14:29;6.47;;;1.55;;
78778;SDS011;68121;52.404;5.318;2023-03-22T11:16:46;6.88;;;1.58;;
78778;SDS011;68121;52.404;5.318;2023-03-22T11:19:25;7.28;;;1.75;;
78778;SDS011;68121;52.404;5.318;2023-03-22T11:21:53;3.45;;;1.55;;
78778;SDS011;68121;52.404;5.318;2023-03-22T11:24:23;6.60;;;1.88;;
78778;SDS011;68121;52.404;5.318;2023-03-22T11:27:53;5.32;;;1.45;;
78778;SDS011;68121;52.404;5.318;2023-03-22T11:30:00;2.53;;;1.48;;
78778;SDS011;68121;52.404;5.318;2023-03-22T11:32:44;8.48;;;1.63;;
78778;SDS011;68121;52.404;5.318;2023-03-22T11:35:12;5.55;;;2.10;;
78778;SDS011;68121;52.404;5.318;2023-03-22T11:37:41;5.00;;;1.30;;
78778;SDS011;68121;52.404;5.318;2023-03-22T11:42:45;7.18;;;2.40;;
78778;SDS011;68121;52.404;5.318;2023-03-22T11:45:24;6.57;;;1.80;;
78778;SDS011;68121;52.404;5.318;2023-03-22T11:48:06;3.22;;;1.17;;
78778;SDS011;68121;52.404;5.318;2023-03-22T11:50:35;4.15;;;1.52;;
78778;SDS011;68121;52.404;5.318;2023-03-22T11:53:03;4.05;;;1.67;;
78778;SDS011;68121;52.404;5.318;2023-03-22T11:55:36;7.25;;;1.85;;
78778;SDS011;68121;52.404;5.318;2023-03-22T11:58:03;3.35;;;1.58;;
78778;SDS011;68121;52.404;5.318;2023-03-22T12:00:31;5.57;;;1.77;;
78778;SDS011;68121;52.404;5.318;2023-03-22T12:03:13;3.53;;;1.60;;
78778;SDS011;68121;52.404;5.318;2023-03-22T12:05:42;4.13;;;1.85;;
78778;SDS011;68121;52.404;5.318;2023-03-22T12:10:57;6.50;;;1.60;;
78778;SDS011;68121;52.404;5.318;2023-03-22T12:16:30;4.47;;;1.70;;
78778;SDS011;68121;52.404;5.318;2023-03-22T12:22:01;7.57;;;2.63;;
78778;SDS011;68121;52.404;5.318;2023-03-22T12:24:28;2.85;;;1.38;;
78778;SDS011;68121;52.404;5.318;2023-03-22T12:27:16;11.23;;;1.48;;
78778;SDS011;68121;52.404;5.318;2023-03-22T12:29:59;4.07;;;1.50;;
78778;SDS011;68121;52.404;5.318;2023-03-22T12:32:31;4.85;;;1.50;;
78778;SDS011;68121;52.404;5.318;2023-03-22T12:34:59;4.80;;;1.85;;
78778;SDS011;68121;52.404;5.318;2023-03-22T12:37:27;6.68;;;1.73;;
78778;SDS011;68121;52.404;5.318;2023-03-22T12:39:59;5.30;;;1.83;;
78778;SDS011;68121;52.404;5.318;2023-03-22T12:45:27;4.40;;;1.98;;
78778;SDS011;68121;52.404;5.318;2023-03-22T12:50:43;5.68;;;1.80;;
78778;SDS011;68121;52.404;5.318;2023-03-22T12:53:12;7.03;;;2.65;;
78778;SDS011;68121;52.404;5.318;2023-03-22T12:55:41;4.68;;;1.67;;
78778;SDS011;68121;52.404;5.318;2023-03-22T12:58:15;4.55;;;1.88;;
78778;SDS011;68121;52.404;5.318;2023-03-22T13:00:56;5.95;;;2.17;;
78778;SDS011;68121;52.404;5.318;2023-03-22T13:03:26;6.72;;;2.03;;
78778;SDS011;68121;52.404;5.318;2023-03-22T13:06:04;5.78;;;1.90;;
78778;SDS011;68121;52.404;5.318;2023-03-22T13:09:11;6.35;;;1.63;;
78778;SDS011;68121;52.404;5.318;2023-03-22T13:11:45;3.75;;;1.83;;
78778;SDS011;68121;52.404;5.318;2023-03-22T13:15:00;5.05;;;2.80;;
78778;SDS011;68121;52.404;5.318;2023-03-22T13:25:05;6.07;;;1.90;;
78778;SDS011;68121;52.404;5.318;2023-03-22T13:30:05;6.13;;;2.53;;
78778;SDS011;68121;52.404;5.318;2023-03-22T13:33:14;4.28;;;1.98;;
78778;SDS011;68121;52.404;5.318;2023-03-22T13:35:43;2.65;;;1.50;;
78778;SDS011;68121;52.404;5.318;2023-03-22T13:38:19;5.97;;;1.80;;
78778;SDS011;68121;52.404;5.318;2023-03-22T13:40:52;7.22;;;3.10;;
78778;SDS011;68121;52.404;5.318;2023-03-22T13:43:24;7.43;;;2.03;;
78778;SDS011;68121;52.404;5.318;2023-03-22T13:48:41;5.50;;;2.25;;
78778;SDS011;68121;52.404;5.318;2023-03-22T13:51:13;7.07;;;2.22;;
78778;SDS011;68121;52.404;5.318;2023-03-22T13:53:41;5.00;;;2.10;;
78778;SDS011;68121;52.404;5.318;2023-03-22T13:56:23;3.42;;;2.15;;
78778;SDS011;68121;52.404;5.318;2023-03-22T13:58:58;4.65;;;2.72;;
78778;SDS011;68121;52.404;5.318;2023-03-22T14:01:28;4.82;;;2.20;;
78778;SDS011;68121;52.404;5.318;2023-03-22T14:03:56;6.10;;;2.35;;
78778;SDS011;68121;52.404;5.318;2023-03-22T14:06:26;4.93;;;2.00;;
78778;SDS011;68121;52.404;5.318;2023-03-22T14:09:01;4.35;;;2.17;;
78778;SDS011;68121;52.404;5.318;2023-03-22T14:11:38;5.63;;;2.15;;
78778;SDS011;68121;52.404;5.318;2023-03-22T14:14:17;5.43;;;2.30;;
78778;SDS011;68121;52.404;5.318;2023-03-22T14:17:01;4.28;;;2.30;;
78778;SDS011;68121;52.404;5.318;2023-03-22T14:19:51;7.20;;;2.38;;
78778;SDS011;68121;52.404;5.318;2023-03-22T14:22:25;4.63;;;2.15;;
78778;SDS011;68121;52.404;5.318;2023-03-22T14:24:55;7.90;;;2.45;;
78778;SDS011;68121;52.404;5.318;2023-03-22T14:27:24;4.18;;;2.40;;
78778;SDS011;68121;52.404;5.318;2023-03-22T14:29:50;4.90;;;2.63;;
78778;SDS011;68121;52.404;5.318;2023-03-22T14:32:20;4.60;;;2.38;;
78778;SDS011;68121;52.404;5.318;2023-03-22T14:34:55;6.70;;;2.30;;
78778;SDS011;68121;52.404;5.318;2023-03-22T14:37:28;5.07;;;2.20;;
78778;SDS011;68121;52.404;5.318;2023-03-22T14:39:54;5.85;;;2.47;;
78778;SDS011;68121;52.404;5.318;2023-03-22T14:44:57;3.85;;;2.60;;
78778;SDS011;68121;52.404;5.318;2023-03-22T14:49:57;5.68;;;2.47;;
78778;SDS011;68121;52.404;5.318;2023-03-22T14:52:26;4.68;;;2.47;;
78778;SDS011;68121;52.404;5.318;2023-03-22T14:54:59;7.68;;;2.72;;
78778;SDS011;68121;52.404;5.318;2023-03-22T14:57:28;5.43;;;2.35;;
78778;SDS011;68121;52.404;5.318;2023-03-22T15:00:01;4.75;;;2.55;;
78778;SDS011;68121;52.404;5.318;2023-03-22T15:02:41;3.47;;;2.17;;
78778;SDS011;68121;52.404;5.318;2023-03-22T15:05:18;6.93;;;2.47;;
78778;SDS011;68121;52.404;5.318;2023-03-22T15:07:47;5.93;;;2.33;;
78778;SDS011;68121;52.404;5.318;2023-03-22T15:10:15;4.88;;;2.72;;
78778;SDS011;68121;52.404;5.318;2023-03-22T15:12:43;3.72;;;2.20;;
78778;SDS011;68121;52.404;5.318;2023-03-22T15:15:11;5.15;;;2.80;;
78778;SDS011;68121;52.404;5.318;2023-03-22T15:17:39;4.35;;;2.45;;
78778;SDS011;68121;52.404;5.318;2023-03-22T15:20:08;4.30;;;2.33;;
78778;SDS011;68121;52.404;5.318;2023-03-22T15:22:37;4.95;;;2.50;;
78778;SDS011;68121;52.404;5.318;2023-03-22T15:25:04;5.95;;;2.55;;
78778;SDS011;68121;52.404;5.318;2023-03-22T15:27:36;3.20;;;2.13;;
78778;SDS011;68121;52.404;5.318;2023-03-22T15:30:04;5.82;;;2.55;;
78778;SDS011;68121;52.404;5.318;2023-03-22T15:32:32;3.58;;;2.13;;
78778;SDS011;68121;52.404;5.318;2023-03-22T15:35:03;4.90;;;2.28;;
78778;SDS011;68121;52.404;5.318;2023-03-22T15:37:33;6.25;;;2.13;;
78778;SDS011;68121;52.404;5.318;2023-03-22T15:40:03;5.18;;;2.55;;
78778;SDS011;68121;52.404;5.318;2023-03-22T15:42:37;5.32;;;2.67;;
78778;SDS011;68121;52.404;5.318;2023-03-22T15:45:19;5.65;;;2.50;;
78778;SDS011;68121;52.404;5.318;2023-03-22T15:47:50;4.38;;;2.60;;
78778;SDS011;68121;52.404;5.318;2023-03-22T15:50:19;3.63;;;2.30;;
78778;SDS011;68121;52.404;5.318;2023-03-22T15:52:48;8.10;;;2.70;;
78778;SDS011;68121;52.404;5.318;2023-03-22T15:55:19;6.15;;;2.78;;
78778;SDS011;68121;52.404;5.318;2023-03-22T15:57:52;6.45;;;3.17;;
78778;SDS011;68121;52.404;5.318;2023-03-22T16:00:21;6.53;;;3.35;;
78778;SDS011;68121;52.404;5.318;2023-03-22T16:02:52;8.13;;;3.25;;
78778;SDS011;68121;52.404;5.318;2023-03-22T16:05:32;7.65;;;3.22;;
78778;SDS011;68121;52.404;5.318;2023-03-22T16:07:59;6.22;;;3.42;;
78778;SDS011;68121;52.404;5.318;2023-03-22T16:10:27;7.43;;;3.58;;
78778;SDS011;68121;52.404;5.318;2023-03-22T16:12:54;5.53;;;4.07;;
78778;SDS011;68121;52.404;5.318;2023-03-22T16:15:31;9.65;;;3.95;;
78778;SDS011;68121;52.404;5.318;2023-03-22T16:17:58;11.05;;;5.38;;
78778;SDS011;68121;52.404;5.318;2023-03-22T16:20:25;6.90;;;4.82;;
78778;SDS011;68121;52.404;5.318;2023-03-22T16:22:59;10.10;;;4.57;;
78778;SDS011;68121;52.404;5.318;2023-03-22T16:25:26;7.85;;;4.60;;
78778;SDS011;68121;52.404;5.318;2023-03-22T16:27:55;7.53;;;4.38;;
78778;SDS011;68121;52.404;5.318;2023-03-22T16:30:21;8.85;;;4.80;;
78778;SDS011;68121;52.404;5.318;2023-03-22T16:32:47;7.43;;;4.53;;
78778;SDS011;68121;52.404;5.318;2023-03-22T16:35:23;7.70;;;5.25;;
78778;SDS011;68121;52.404;5.318;2023-03-22T16:37:49;4.80;;;3.83;;
78778;SDS011;68121;52.404;5.318;2023-03-22T16:40:20;5.57;;;4.65;;